Time;durP1;ratioP1;P1;durP2;ratioP2;P2;SDS_P1;SDS_P2;PMS_P1;PMS_P2;Temp;Humidity;BMP_temperature;BMP_pressure;BME280_temperature;BME280_humidity;BME280_pressure;Samples;Min_cycle;Max_cycle;Signal;HPM_P1;HPM_P2
2021/05/15 00:01:59;;;;;;;19.67;11.97;;;9.70;85.40;;;;;;5135560;27;20054;-68
2021/05/15 00:04:24;;;;;;;13.53;10.40;;;9.70;85.10;;;;;;5135985;27;20416;-68
2021/05/15 00:06:50;;;;;;;16.00;12.47;;;9.70;85.10;;;;;;5135616;27;20128;-68
2021/05/15 00:09:16;;;;;;;15.30;12.07;;;9.70;85.00;;;;;;5135763;27;20043;-68
2021/05/15 00:11:42;;;;;;;17.97;12.87;;;9.70;84.90;;;;;;5135058;27;20297;-68
2021/05/15 00:14:08;;;;;;;18.77;12.23;;;9.60;85.00;;;;;;5136095;27;20099;-67
2021/05/15 00:16:34;;;;;;;15.70;12.10;;;9.60;85.20;;;;;;5135539;27;20941;-67
2021/05/15 00:19:01;;;;;;;16.50;11.70;;;9.60;85.30;;;;;;5134861;27;20166;-67
2021/05/15 00:21:27;;;;;;;14.37;11.30;;;9.60;85.40;;;;;;5135482;27;20387;-67
2021/05/15 00:23:52;;;;;;;14.80;10.90;;;9.60;85.40;;;;;;5135701;27;20100;-68
2021/05/15 00:26:18;;;;;;;14.30;11.57;;;9.70;85.40;;;;;;5134789;27;20043;-67
2021/05/15 00:28:44;;;;;;;15.90;10.23;;;9.70;85.30;;;;;;5135585;27;20395;-68
2021/05/15 00:31:10;;;;;;;14.57;9.97;;;9.70;85.40;;;;;;5135456;27;20522;-67
2021/05/15 00:33:36;;;;;;;10.23;8.73;;;9.60;85.40;;;;;;5134498;27;20309;-67
2021/05/15 00:36:03;;;;;;;15.50;11.23;;;9.60;85.50;;;;;;5135443;27;20084;-67
2021/05/15 00:38:29;;;;;;;16.17;10.90;;;9.50;85.70;;;;;;5135035;27;20797;-67
2021/05/15 00:40:54;;;;;;;13.73;10.63;;;9.50;85.90;;;;;;5134209;27;20296;-67
2021/05/15 00:43:20;;;;;;;15.90;13.00;;;9.50;85.80;;;;;;5135092;27;20074;-67
2021/05/15 00:45:46;;;;;;;18.33;13.03;;;9.50;85.80;;;;;;5135324;27;20054;-67
2021/05/15 00:48:12;;;;;;;18.53;12.53;;;9.60;85.80;;;;;;5134713;27;20095;-67
2021/05/15 00:50:38;;;;;;;13.17;10.33;;;9.50;85.70;;;;;;5135473;27;20126;-67
2021/05/15 00:53:04;;;;;;;16.80;11.47;;;9.50;85.70;;;;;;5135188;27;20126;-67
2021/05/15 00:55:31;;;;;;;10.13;8.03;;;9.50;85.90;;;;;;5134340;27;20043;-67
2021/05/15 00:57:58;;;;;;;12.87;8.87;;;9.50;85.90;;;;;;5134777;27;20316;-67
2021/05/15 01:00:24;;;;;;;15.33;11.47;;;9.40;86.00;;;;;;5134896;27;20544;-67
2021/05/15 01:02:50;;;;;;;17.63;12.73;;;9.40;86.20;;;;;;5133809;27;20388;-67
2021/05/15 01:05:16;;;;;;;16.67;12.77;;;9.40;86.30;;;;;;5134925;27;20388;-68
2021/05/15 01:07:46;;;;;;;16.87;12.67;;;9.40;86.40;;;;;;5134804;27;20039;-67
2021/05/15 01:10:12;;;;;;;16.23;11.93;;;9.30;86.50;;;;;;5134715;27;20342;-67
2021/05/15 01:12:47;;;;;;;18.77;12.57;;;9.30;86.70;;;;;;5134719;27;20535;-67
2021/05/15 01:15:13;;;;;;;18.13;12.43;;;9.20;86.80;;;;;;5134012;27;20380;-68
2021/05/15 01:17:38;;;;;;;15.30;12.37;;;9.20;86.80;;;;;;5134739;27;20385;-67
2021/05/15 01:20:05;;;;;;;17.40;12.23;;;9.20;86.90;;;;;;5134314;27;20047;-67
2021/05/15 01:22:32;;;;;;;17.30;12.57;;;9.10;86.90;;;;;;5133658;27;20289;-67
2021/05/15 01:24:57;;;;;;;16.43;12.67;;;9.10;87.00;;;;;;5134048;27;20791;-67
2021/05/15 01:27:23;;;;;;;17.97;12.23;;;9.00;87.10;;;;;;5134348;27;20296;-67
2021/05/15 01:29:50;;;;;;;18.13;12.33;;;9.00;87.40;;;;;;5133700;27;20051;-67
2021/05/15 01:32:16;;;;;;;16.57;11.90;;;8.90;87.80;;;;;;5134279;27;20046;-67
2021/05/15 01:34:41;;;;;;;15.37;11.13;;;8.80;88.00;;;;;;5134332;27;20834;-67
2021/05/15 01:37:07;;;;;;;16.57;11.13;;;8.80;88.20;;;;;;5133687;27;20043;-67
2021/05/15 01:39:33;;;;;;;16.70;11.97;;;8.70;88.40;;;;;;5134118;27;20055;-68
2021/05/15 01:41:58;;;;;;;13.97;10.70;;;8.80;88.40;;;;;;5133694;27;20074;-67
2021/05/15 01:44:24;;;;;;;17.23;13.20;;;8.80;88.40;;;;;;5133428;27;20079;-67
2021/05/15 01:46:50;;;;;;;17.37;12.00;;;8.80;88.40;;;;;;5134096;27;20131;-68
2021/05/15 01:49:15;;;;;;;15.33;11.43;;;8.90;88.30;;;;;;5134100;27;20058;-68
2021/05/15 01:51:41;;;;;;;17.83;13.47;;;8.90;88.30;;;;;;5132884;27;20074;-68
2021/05/15 01:54:07;;;;;;;16.80;11.77;;;8.90;88.30;;;;;;5133864;27;20100;-67
2021/05/15 01:56:33;;;;;;;15.30;11.90;;;8.90;88.50;;;;;;5133352;27;20126;-68
2021/05/15 01:58:59;;;;;;;19.03;12.20;;;8.90;88.60;;;;;;5132925;27;20092;-67
2021/05/15 02:01:26;;;;;;;16.60;12.03;;;8.90;88.70;;;;;;5133466;27;20058;-68
2021/05/15 02:03:52;;;;;;;14.83;11.27;;;8.90;88.70;;;;;;5133629;27;20708;-67
2021/05/15 02:06:18;;;;;;;15.10;11.60;;;8.90;88.80;;;;;;5132652;27;20296;-67
2021/05/15 02:08:46;;;;;;;15.80;12.13;;;8.90;88.90;;;;;;5133282;27;20050;-67
2021/05/15 02:11:16;;;;;;;17.67;13.13;;;8.90;88.90;;;;;;5132913;27;20289;-68
2021/05/15 02:13:49;;;;;;;17.30;11.87;;;8.90;89.10;;;;;;5133150;27;20296;-68
2021/05/15 02:16:17;;;;;;;16.80;11.70;;;8.90;89.10;;;;;;5133419;27;20349;-68
2021/05/15 02:18:43;;;;;;;15.07;10.80;;;8.90;89.20;;;;;;5132722;27;20409;-68
2021/05/15 02:21:09;;;;;;;14.77;11.50;;;8.90;89.20;;;;;;5133625;27;20292;-68
2021/05/15 02:23:35;;;;;;;14.77;11.40;;;8.90;89.40;;;;;;5133240;27;20303;-67
2021/05/15 02:26:01;;;;;;;15.27;11.47;;;8.90;89.20;;;;;;5132349;27;20103;-67
2021/05/15 02:28:27;;;;;;;18.50;11.77;;;8.90;89.00;;;;;;5133200;27;20043;-68
2021/05/15 02:30:53;;;;;;;15.07;10.40;;;8.90;88.90;;;;;;5133010;27;20388;-67
2021/05/15 02:33:18;;;;;;;16.73;12.70;;;8.90;89.00;;;;;;5132467;27;20122;-68
2021/05/15 02:35:45;;;;;;;19.20;12.20;;;8.80;89.30;;;;;;5132949;27;20043;-67
2021/05/15 02:38:12;;;;;;;14.43;11.43;;;8.80;89.30;;;;;;5133224;27;20047;-67
2021/05/15 02:40:39;;;;;;;16.97;11.20;;;8.80;89.60;;;;;;5132461;27;20299;-67
2021/05/15 02:43:05;;;;;;;16.33;13.37;;;8.80;90.30;;;;;;5132778;27;20822;-67
2021/05/15 02:45:31;;;;;;;17.47;14.07;;;8.80;89.80;;;;;;5132832;27;20329;-67
2021/05/15 02:47:57;;;;;;;19.70;13.50;;;8.80;89.90;;;;;;5132081;27;20061;-67
2021/05/15 02:50:23;;;;;;;20.00;13.33;;;8.70;90.00;;;;;;5132977;27;20743;-67
2021/05/15 02:52:50;;;;;;;17.83;12.60;;;8.70;90.00;;;;;;5132873;27;20047;-67
2021/05/15 02:55:24;;;;;;;17.03;13.07;;;8.70;90.00;;;;;;5131971;27;20364;-67
2021/05/15 02:57:50;;;;;;;19.43;14.17;;;8.70;90.00;;;;;;5132802;27;20301;-67
2021/05/15 03:00:19;;;;;;;18.90;12.97;;;8.70;90.10;;;;;;5132469;27;20313;-68
2021/05/15 03:02:45;;;;;;;17.53;13.23;;;8.60;90.10;;;;;;5132280;27;20295;-67
2021/05/15 03:05:14;;;;;;;20.47;13.47;;;8.60;90.10;;;;;;5132787;27;20383;-67
2021/05/15 03:07:42;;;;;;;20.13;15.07;;;8.60;90.20;;;;;;5131713;27;20765;-67
2021/05/15 03:10:09;;;;;;;23.73;15.67;;;8.60;90.20;;;;;;5132645;28;20305;-67
2021/05/15 03:12:36;;;;;;;18.93;14.60;;;8.60;90.30;;;;;;5132395;27;20047;-67
2021/05/15 03:15:07;;;;;;;21.63;14.60;;;8.60;90.30;;;;;;5131823;27;20296;-67
2021/05/15 03:17:35;;;;;;;24.52;15.23;;;8.50;90.30;;;;;;5132557;27;20368;-67
2021/05/15 03:20:02;;;;;;;22.37;15.23;;;8.50;90.30;;;;;;5132482;27;20140;-67
2021/05/15 03:22:28;;;;;;;22.90;14.97;;;8.40;90.40;;;;;;5131486;27;20750;-66
2021/05/15 03:24:54;;;;;;;23.30;15.20;;;8.30;90.40;;;;;;5133405;27;20304;-67
2021/05/15 03:27:19;;;;;;;22.33;15.90;;;8.30;90.50;;;;;;5136635;27;20138;-67
2021/05/15 03:29:45;;;;;;;24.40;15.80;;;8.20;90.50;;;;;;5136001;27;20138;-67
2021/05/15 03:32:11;;;;;;;24.63;14.97;;;8.10;90.60;;;;;;5136767;27;20467;-67
2021/05/15 03:34:37;;;;;;;25.57;16.90;;;8.10;90.70;;;;;;5136677;27;20057;-67
2021/05/15 03:37:03;;;;;;;21.20;14.93;;;8.10;90.70;;;;;;5135860;27;20046;-67
2021/05/15 03:39:28;;;;;;;22.60;16.13;;;8.10;90.80;;;;;;5136316;27;20313;-67
2021/05/15 03:41:54;;;;;;;23.47;16.37;;;8.10;90.90;;;;;;5136360;27;20039;-67
2021/05/15 03:44:20;;;;;;;21.70;15.63;;;8.20;90.90;;;;;;5135712;27;20074;-67
2021/05/15 03:46:45;;;;;;;23.80;15.63;;;8.10;90.90;;;;;;5136364;27;20192;-67
2021/05/15 03:49:11;;;;;;;25.17;16.17;;;8.20;90.90;;;;;;5136569;27;20551;-67
2021/05/15 03:51:38;;;;;;;24.80;17.47;;;8.20;90.90;;;;;;5135399;27;20070;-67
2021/05/15 03:54:04;;;;;;;22.43;16.20;;;8.20;90.90;;;;;;5136209;27;20185;-67
2021/05/15 03:56:29;;;;;;;24.70;16.93;;;8.20;90.90;;;;;;5135882;27;20326;-67
2021/05/15 03:58:55;;;;;;;23.33;16.57;;;8.20;90.90;;;;;;5135321;27;20054;-67
2021/05/15 04:01:22;;;;;;;26.33;17.90;;;8.20;91.00;;;;;;5136257;27;20043;-67
2021/05/15 04:03:48;;;;;;;25.57;16.17;;;8.10;91.00;;;;;;5134925;27;20063;-66
2021/05/15 04:06:14;;;;;;;24.90;17.13;;;8.10;91.00;;;;;;5135951;27;20656;-67
2021/05/15 04:08:40;;;;;;;26.67;17.27;;;8.10;91.10;;;;;;5136327;27;20376;-67
2021/05/15 04:11:06;;;;;;;26.13;16.83;;;8.10;91.10;;;;;;5135341;27;20637;-66
2021/05/15 04:13:46;;;;;;;28.73;17.40;;;8.10;91.10;;;;;;5135877;27;20099;-66
2021/05/15 04:16:25;;;;;;;24.57;17.20;;;8.10;91.10;;;;;;5136046;27;20335;-66
2021/05/15 04:18:50;;;;;;;24.73;17.60;;;8.10;91.10;;;;;;5134957;27;20399;-66
2021/05/15 04:21:16;;;;;;;26.87;16.90;;;8.10;91.10;;;;;;5135588;27;20392;-67
2021/05/15 04:23:42;;;;;;;26.20;17.43;;;8.20;91.10;;;;;;5135557;27;20135;-67
2021/05/15 04:26:12;;;;;;;33.13;17.93;;;8.20;91.10;;;;;;5134734;27;20383;-66
2021/05/15 04:28:38;;;;;;;28.17;17.10;;;8.20;91.10;;;;;;5135881;27;20130;-67
2021/05/15 04:31:07;;;;;;;28.17;17.97;;;8.30;91.00;;;;;;5135398;27;20773;-68
2021/05/15 04:33:33;;;;;;;25.53;17.10;;;8.30;91.00;;;;;;5134438;27;20388;-67
2021/05/15 04:36:00;;;;;;;25.73;17.33;;;8.40;91.00;;;;;;5134848;27;20395;-67
2021/05/15 04:38:25;;;;;;;29.17;18.10;;;8.40;91.00;;;;;;5135187;27;20413;-67
2021/05/15 04:40:51;;;;;;;25.23;17.43;;;8.50;91.00;;;;;;5134361;27;20293;-67
2021/05/15 04:43:18;;;;;;;26.33;17.77;;;8.50;91.00;;;;;;5135063;27;20047;-67
2021/05/15 04:45:45;;;;;;;26.57;17.67;;;8.50;91.00;;;;;;5135076;27;20047;-67
2021/05/15 04:48:11;;;;;;;29.37;19.70;;;8.50;90.90;;;;;;5134831;27;20315;-67
2021/05/15 04:50:37;;;;;;;27.50;18.23;;;8.50;90.90;;;;;;5135077;27;20681;-67
2021/05/15 04:53:03;;;;;;;27.80;17.73;;;8.50;91.00;;;;;;5134130;27;20499;-67
2021/05/15 04:55:29;;;;;;;27.83;17.33;;;8.50;91.00;;;;;;5134501;27;20292;-66
2021/05/15 04:57:57;;;;;;;27.83;18.13;;;8.60;91.10;;;;;;5134835;27;20322;-67
2021/05/15 05:00:23;;;;;;;27.80;18.00;;;8.60;91.20;;;;;;5133913;27;20047;-67
2021/05/15 05:02:49;;;;;;;31.93;18.70;;;8.70;91.20;;;;;;5133779;27;20788;-67
2021/05/15 05:05:15;;;;;;;27.90;18.37;;;8.70;91.20;;;;;;5133382;27;20181;-67
2021/05/15 05:07:40;;;;;;;25.63;17.00;;;8.70;91.10;;;;;;5132759;28;20371;-67
2021/05/15 05:10:06;;;;;;;26.07;17.63;;;8.70;91.10;;;;;;5133472;28;20449;-67
2021/05/15 05:12:32;;;;;;;27.63;17.30;;;8.70;91.10;;;;;;5133303;28;20134;-67
2021/05/15 05:14:58;;;;;;;23.93;16.00;;;8.80;91.20;;;;;;5132443;28;20441;-67
2021/05/15 05:17:23;;;;;;;24.97;17.03;;;8.80;91.10;;;;;;5133466;28;20043;-67
2021/05/15 05:19:50;;;;;;;23.33;17.23;;;8.70;91.20;;;;;;5133229;28;20475;-67
2021/05/15 05:22:15;;;;;;;25.73;17.77;;;8.80;91.10;;;;;;5132740;28;20050;-67
2021/05/15 05:24:44;;;;;;;25.73;16.93;;;8.80;91.00;;;;;;5133356;28;20691;-67
2021/05/15 05:27:10;;;;;;;25.20;16.27;;;8.80;91.00;;;;;;5133299;28;20292;-67
2021/05/15 05:29:36;;;;;;;24.50;17.73;;;8.80;91.00;;;;;;5132580;28;20382;-67
2021/05/15 05:32:02;;;;;;;23.43;16.00;;;8.80;91.10;;;;;;5133217;27;20054;-67
2021/05/15 05:34:27;;;;;;;27.40;18.20;;;8.80;91.00;;;;;;5132930;28;20043;-67
2021/05/15 05:36:53;;;;;;;24.37;16.00;;;8.80;91.40;;;;;;5132149;28;20049;-67
2021/05/15 05:39:20;;;;;;;27.27;17.30;;;8.90;91.10;;;;;;5132722;28;20097;-67
2021/05/15 05:41:49;;;;;;;25.93;18.03;;;8.90;91.00;;;;;;5133032;28;20071;-68
2021/05/15 05:44:15;;;;;;;24.90;16.80;;;9.00;91.00;;;;;;5132158;28;20687;-67
2021/05/15 05:46:41;;;;;;;27.43;16.97;;;9.00;90.90;;;;;;5132902;27;20289;-67
2021/05/15 05:49:07;;;;;;;25.53;18.37;;;9.00;90.80;;;;;;5131409;27;20357;-68
2021/05/15 05:51:33;;;;;;;25.10;17.83;;;9.00;90.80;;;;;;5132774;27;20134;-68
2021/05/15 05:53:59;;;;;;;25.03;17.97;;;9.00;90.80;;;;;;5132548;27;20093;-67
2021/05/15 05:56:25;;;;;;;27.37;18.60;;;9.00;90.80;;;;;;5131581;28;21153;-68
2021/05/15 05:58:55;;;;;;;29.30;19.23;;;9.00;90.90;;;;;;5131947;28;20047;-68
2021/05/15 06:01:21;;;;;;;28.77;17.73;;;9.10;91.00;;;;;;5132303;27;20297;-68
2021/05/15 06:03:46;;;;;;;23.40;15.97;;;9.10;91.00;;;;;;5113711;27;520695;-68
2021/05/15 06:06:15;;;;;;;25.37;16.20;;;9.10;91.00;;;;;;5133717;27;20104;-68
2021/05/15 06:08:41;;;;;;;26.07;16.90;;;9.20;91.00;;;;;;5133556;27;20047;-68
2021/05/15 06:11:07;;;;;;;26.97;17.67;;;9.20;91.00;;;;;;5132930;27;20297;-67
2021/05/15 06:13:33;;;;;;;26.50;17.10;;;9.30;90.90;;;;;;5133306;27;20387;-67
2021/05/15 06:15:59;;;;;;;27.07;17.10;;;9.30;91.00;;;;;;5133226;27;20317;-68
2021/05/15 06:18:25;;;;;;;26.70;17.37;;;9.40;90.90;;;;;;5131386;27;20503;-67
2021/05/15 06:20:50;;;;;;;26.37;18.03;;;9.40;90.90;;;;;;5132875;27;20051;-68
2021/05/15 06:23:16;;;;;;;28.27;17.87;;;9.50;90.90;;;;;;5133223;27;20054;-69
2021/05/15 06:25:43;;;;;;;24.57;17.33;;;9.50;90.90;;;;;;5132420;27;20055;-68
2021/05/15 06:28:11;;;;;;;24.40;17.80;;;9.50;90.80;;;;;;5133307;27;20322;-68
2021/05/15 06:30:37;;;;;;;22.70;15.33;;;9.60;90.80;;;;;;5132891;27;20047;-68
2021/05/15 06:33:02;;;;;;;25.10;18.10;;;9.70;90.80;;;;;;5132155;27;20300;-68
2021/05/15 06:35:28;;;;;;;26.20;16.50;;;9.70;90.70;;;;;;5132164;27;20047;-68
2021/05/15 06:37:54;;;;;;;25.37;16.57;;;9.80;90.50;;;;;;5132916;27;20611;-67
2021/05/15 06:40:19;;;;;;;23.33;16.50;;;9.90;90.50;;;;;;5131876;27;20138;-68
2021/05/15 06:42:45;;;;;;;25.33;17.00;;;9.90;90.40;;;;;;5132830;27;20044;-68
2021/05/15 06:45:12;;;;;;;22.37;15.93;;;9.90;90.30;;;;;;5133100;27;20055;-68
2021/05/15 06:47:38;;;;;;;23.53;16.53;;;10.00;90.30;;;;;;5132187;27;20043;-68
2021/05/15 06:50:05;;;;;;;21.67;15.33;;;10.10;90.10;;;;;;5132457;27;20548;-68
2021/05/15 06:52:32;;;;;;;22.00;15.67;;;10.20;90.00;;;;;;5131913;27;20129;-68
2021/05/15 06:54:58;;;;;;;24.20;16.80;;;10.30;89.60;;;;;;5132536;27;20300;-68
2021/05/15 06:57:24;;;;;;;22.13;15.20;;;10.30;89.20;;;;;;5132052;27;20293;-68
2021/05/15 06:59:49;;;;;;;26.97;16.60;;;10.30;89.10;;;;;;5131200;27;20415;-68
2021/05/15 07:02:15;;;;;;;23.47;15.93;;;10.30;88.90;;;;;;5132151;27;20047;-68
2021/05/15 07:04:41;;;;;;;21.77;15.63;;;10.40;88.90;;;;;;5132155;27;20071;-69
2021/05/15 07:07:06;;;;;;;23.30;16.10;;;10.40;88.60;;;;;;5132147;27;20501;-67
2021/05/15 07:09:32;;;;;;;24.57;15.47;;;10.50;88.50;;;;;;5132377;27;20054;-68
2021/05/15 07:11:58;;;;;;;25.27;16.47;;;10.50;88.30;;;;;;5132349;27;20057;-68
2021/05/15 07:14:23;;;;;;;22.30;15.57;;;10.50;88.20;;;;;;5131829;28;20130;-68
2021/05/15 07:16:49;;;;;;;22.83;15.37;;;10.50;88.10;;;;;;5132305;27;20043;-68
2021/05/15 07:19:15;;;;;;;23.07;16.47;;;10.50;88.00;;;;;;5132038;28;20051;-69
2021/05/15 07:21:41;;;;;;;23.63;15.67;;;10.50;88.00;;;;;;5131844;27;20047;-69
2021/05/15 07:24:07;;;;;;;21.23;14.97;;;10.50;89.00;;;;;;5132580;28;20170;-68
2021/05/15 07:26:34;;;;;;;21.57;15.87;;;10.60;87.80;;;;;;5132230;27;20096;-68
2021/05/15 07:28:59;;;;;;;22.70;15.40;;;10.60;87.50;;;;;;5131134;28;20043;-67
2021/05/15 07:31:28;;;;;;;21.23;16.10;;;10.60;87.30;;;;;;5132032;27;20053;-68
2021/05/15 07:33:54;;;;;;;18.20;14.37;;;10.60;87.50;;;;;;5132059;27;20043;-68
2021/05/15 07:36:19;;;;;;;20.97;16.10;;;10.50;87.20;;;;;;5131648;28;20058;-68
2021/05/15 07:38:47;;;;;;;20.17;13.57;;;10.50;87.40;;;;;;5132284;28;20536;-69
2021/05/15 07:41:14;;;;;;;21.67;15.83;;;10.50;87.40;;;;;;5131938;27;20043;-68
2021/05/15 07:43:39;;;;;;;19.80;14.73;;;10.50;87.50;;;;;;5131468;27;20089;-68
2021/05/15 07:46:05;;;;;;;22.37;15.17;;;10.50;87.70;;;;;;5132424;27;20067;-68
2021/05/15 07:48:41;;;;;;;23.97;16.20;;;10.50;87.70;;;;;;5131698;27;20094;-68
2021/05/15 07:51:11;;;;;;;18.43;14.97;;;10.50;87.50;;;;;;5131744;27;20107;-68
2021/05/15 07:53:38;;;;;;;24.38;16.30;;;10.50;87.70;;;;;;5131763;27;20051;-68
2021/05/15 07:56:04;;;;;;;24.27;14.90;;;10.40;87.50;;;;;;5131247;28;20466;-68
2021/05/15 07:58:30;;;;;;;22.30;15.27;;;10.50;87.40;;;;;;5131751;27;20495;-68
2021/05/15 08:00:56;;;;;;;24.27;16.57;;;10.50;87.40;;;;;;5131867;28;20039;-68
2021/05/15 08:03:22;;;;;;;23.63;15.07;;;10.50;87.50;;;;;;5130118;28;20051;-68
2021/05/15 08:05:47;;;;;;;20.13;15.63;;;10.50;87.20;;;;;;5131513;27;20043;-68
2021/05/15 08:08:13;;;;;;;22.27;15.07;;;10.60;87.10;;;;;;5131243;28;20055;-68
2021/05/15 08:10:39;;;;;;;20.83;15.43;;;10.70;87.40;;;;;;5131416;27;20054;-68
2021/05/15 08:13:04;;;;;;;20.33;14.77;;;10.80;87.20;;;;;;5135324;27;20121;-68
2021/05/15 08:15:31;;;;;;;23.47;15.77;;;10.80;86.70;;;;;;5135294;27;20458;-68
2021/05/15 08:17:56;;;;;;;22.83;16.13;;;10.90;87.30;;;;;;5134529;27;20051;-68
2021/05/15 08:20:23;;;;;;;22.33;16.07;;;11.00;86.20;;;;;;5135631;27;20502;-68
2021/05/15 08:22:49;;;;;;;22.33;14.73;;;11.00;85.80;;;;;;5135705;27;20118;-68
2021/05/15 08:25:17;;;;;;;22.57;16.23;;;11.00;85.80;;;;;;5134694;27;20039;-68
2021/05/15 08:27:49;;;;;;;19.73;15.73;;;11.00;86.00;;;;;;5135261;27;20069;-68
2021/05/15 08:30:18;;;;;;;22.63;16.17;;;11.00;86.00;;;;;;5135157;27;20082;-68
2021/05/15 08:32:44;;;;;;;20.73;16.67;;;11.10;86.00;;;;;;5134558;27;20138;-68
2021/05/15 08:35:11;;;;;;;23.77;16.97;;;11.10;86.80;;;;;;5135440;27;20054;-68
2021/05/15 08:37:37;;;;;;;24.27;17.00;;;11.20;86.00;;;;;;5135049;27;20069;-68
2021/05/15 08:40:04;;;;;;;22.83;16.83;;;11.20;85.80;;;;;;5134111;27;20047;-68
2021/05/15 08:42:34;;;;;;;22.03;16.87;;;11.30;85.70;;;;;;5134681;27;20505;-67
2021/05/15 08:45:02;;;;;;;23.73;16.50;;;11.30;85.50;;;;;;5134315;27;20054;-67
2021/05/15 08:47:29;;;;;;;25.73;17.13;;;11.40;85.40;;;;;;5134971;27;20445;-66
2021/05/15 08:49:59;;;;;;;23.87;17.83;;;11.50;85.40;;;;;;5134826;27;20047;-67
2021/05/15 08:52:25;;;;;;;22.57;15.80;;;11.60;85.20;;;;;;5134141;27;20066;-67
2021/05/15 08:54:50;;;;;;;24.43;16.37;;;11.60;85.00;;;;;;5134403;27;20039;-67
2021/05/15 08:57:16;;;;;;;25.27;17.47;;;11.60;85.00;;;;;;5134318;27;20054;-67
2021/05/15 08:59:42;;;;;;;27.27;18.70;;;11.60;84.90;;;;;;5133718;27;20051;-67
2021/05/15 09:02:08;;;;;;;24.40;18.83;;;11.60;84.80;;;;;;5134607;27;20493;-66
2021/05/15 09:04:34;;;;;;;23.67;18.00;;;11.60;84.70;;;;;;5134368;27;20050;-67
2021/05/15 09:06:59;;;;;;;29.97;18.97;;;11.60;84.50;;;;;;5133965;27;20046;-67
2021/05/15 09:09:25;;;;;;;25.27;17.93;;;11.60;84.50;;;;;;5134270;27;20054;-67
2021/05/15 09:11:51;;;;;;;28.50;19.70;;;11.60;84.70;;;;;;5134253;27;20066;-67
2021/05/15 09:14:18;;;;;;;27.07;19.17;;;11.60;84.80;;;;;;5133455;27;20051;-67
2021/05/15 09:16:49;;;;;;;30.93;19.47;;;11.70;84.70;;;;;;5134346;27;20043;-67
2021/05/15 09:19:19;;;;;;;29.20;19.43;;;11.70;84.60;;;;;;5134243;27;20134;-67
2021/05/15 09:21:57;;;;;;;32.23;21.80;;;11.60;84.40;;;;;;5133017;27;20055;-67
2021/05/15 09:24:31;;;;;;;34.60;22.83;;;11.60;84.60;;;;;;5133556;27;20043;-67
2021/05/15 09:26:58;;;;;;;39.60;24.87;;;11.60;84.90;;;;;;5134009;27;20050;-67
2021/05/15 09:29:24;;;;;;;40.80;25.63;;;11.60;84.90;;;;;;5133517;27;20108;-67
2021/05/15 09:31:51;;;;;;;39.10;26.57;;;11.60;84.90;;;;;;5133824;27;20492;-67
2021/05/15 09:34:17;;;;;;;41.77;25.83;;;11.60;85.10;;;;;;5133041;27;20051;-67
2021/05/15 09:36:46;;;;;;;44.90;26.47;;;11.60;85.00;;;;;;5133508;27;20043;-67
2021/05/15 09:39:16;;;;;;;41.30;26.27;;;11.70;85.00;;;;;;5133623;27;20472;-67
2021/05/15 09:41:52;;;;;;;44.60;27.03;;;11.70;84.90;;;;;;5133076;27;20047;-67
2021/05/15 09:44:35;;;;;;;45.07;27.70;;;11.70;85.00;;;;;;5133591;27;20046;-67
2021/05/15 09:47:03;;;;;;;43.10;27.93;;;11.70;85.10;;;;;;5133609;27;20118;-67
2021/05/15 09:49:31;;;;;;;39.17;26.80;;;11.70;85.10;;;;;;5133009;27;20043;-67
2021/05/15 09:52:05;;;;;;;42.43;27.17;;;11.80;85.10;;;;;;5133616;27;20082;-67
2021/05/15 09:54:43;;;;;;;47.23;28.37;;;11.80;85.00;;;;;;5133576;27;20450;-67
2021/05/15 09:57:15;;;;;;;41.27;26.00;;;11.80;85.00;;;;;;5132895;27;20456;-67
2021/05/15 09:59:44;;;;;;;42.00;27.63;;;11.80;85.10;;;;;;5133029;27;20057;-67
2021/05/15 10:02:17;;;;;;;42.40;27.93;;;11.90;85.00;;;;;;5133824;27;20098;-68
2021/05/15 10:04:46;;;;;;;44.43;27.43;;;11.90;85.10;;;;;;5133269;27;20431;-67
2021/05/15 10:07:29;;;;;;;40.50;27.00;;;11.90;85.20;;;;;;5133703;27;20107;-66
2021/05/15 10:10:00;;;;;;;43.60;27.43;;;11.90;85.30;;;;;;5132485;27;20399;-67
2021/05/15 10:12:26;;;;;;;42.55;26.92;;;11.90;85.30;;;;;;5133282;27;20043;-67
2021/05/15 10:14:52;;;;;;;38.30;26.50;;;11.90;85.20;;;;;;5133231;27;20050;-67
2021/05/15 10:17:18;;;;;;;41.57;29.33;;;12.00;85.20;;;;;;5132590;27;20124;-67
2021/05/15 10:19:44;;;;;;;39.67;26.30;;;12.00;85.00;;;;;;5132899;27;20104;-67
2021/05/15 10:22:09;;;;;;;41.17;27.90;;;12.10;84.90;;;;;;5132961;27;20491;-67
2021/05/15 10:24:36;;;;;;;40.47;29.63;;;12.10;84.50;;;;;;5132258;27;20047;-67
2021/05/15 10:27:11;;;;;;;40.67;27.53;;;12.10;84.70;;;;;;5133036;27;20061;-67
2021/05/15 10:29:42;;;;;;;44.63;29.57;;;12.10;84.80;;;;;;5133245;27;20564;-67
2021/05/15 10:32:14;;;;;;;36.83;27.47;;;12.10;84.60;;;;;;5132551;27;20047;-67
2021/05/15 10:34:39;;;;;;;;;;;12.10;84.50;;;;;;5133216;27;20047;-67
2021/05/15 10:37:15;;;;;;;43.07;27.57;;;12.00;84.20;;;;;;5133075;27;19920;-67
2021/05/15 10:39:41;;;;;;;44.77;29.30;;;12.10;84.90;;;;;;5131866;27;20094;-67
2021/05/15 10:42:07;;;;;;;41.73;28.53;;;12.20;84.90;;;;;;5132852;27;20496;-67
2021/05/15 10:44:45;;;;;;;42.20;26.60;;;12.30;84.70;;;;;;5132047;27;20047;-67
2021/05/15 10:47:11;;;;;;;42.13;28.93;;;12.50;84.30;;;;;;5133012;27;20499;-67
2021/05/15 10:49:37;;;;;;;38.00;26.27;;;12.60;83.90;;;;;;5132553;27;20154;-67
2021/05/15 10:52:11;;;;;;;39.20;28.13;;;12.70;83.50;;;;;;5132100;27;20062;-67
2021/05/15 10:54:42;;;;;;;42.17;29.10;;;12.70;83.30;;;;;;5132712;27;20143;-67
2021/05/15 10:57:16;;;;;;;41.38;28.58;;;12.60;83.00;;;;;;5133010;27;20116;-67
2021/05/15 10:59:54;;;;;;;40.97;28.87;;;12.50;83.10;;;;;;5131984;27;20047;-67
2021/05/15 11:02:21;;;;;;;35.97;27.13;;;12.50;83.30;;;;;;5132160;27;20050;-67
2021/05/15 11:04:50;;;;;;;38.50;27.20;;;12.50;83.30;;;;;;5132200;27;20063;-67
2021/05/15 11:07:23;;;;;;;37.40;28.53;;;12.60;83.30;;;;;;5132265;27;20039;-67
2021/05/15 11:09:55;;;;;;;39.73;30.20;;;12.70;83.00;;;;;;5132588;27;20043;-67
2021/05/15 11:12:22;;;;;;;39.65;28.95;;;12.60;82.60;;;;;;5132044;27;20047;-67
2021/05/15 11:14:49;;;;;;;38.00;27.90;;;12.60;82.60;;;;;;5131892;27;20058;-67
2021/05/15 11:17:25;;;;;;;44.80;29.93;;;12.60;82.70;;;;;;5132525;27;20133;-68
2021/05/15 11:19:59;;;;;;;42.97;29.83;;;12.60;82.70;;;;;;5131461;27;20043;-67
2021/05/15 11:22:40;;;;;;;40.10;29.23;;;12.60;82.60;;;;;;5132088;27;20414;-67
2021/05/15 11:25:28;;;;;;;38.43;28.40;;;12.60;82.70;;;;;;5132444;27;20074;-67
2021/05/15 11:28:02;;;;;;;39.83;29.13;;;12.70;82.80;;;;;;5131356;27;20045;-67
2021/05/15 11:30:42;;;;;;;41.97;29.30;;;12.70;82.30;;;;;;5131883;27;20055;-67
2021/05/15 11:33:14;;;;;;;40.30;30.20;;;12.70;82.30;;;;;;5132638;27;20066;-67
2021/05/15 11:35:51;;;;;;;40.72;29.77;;;12.70;82.30;;;;;;5131390;27;20490;-67
2021/05/15 11:38:21;;;;;;;42.00;29.83;;;12.70;82.60;;;;;;5132054;27;20070;-67
2021/05/15 11:40:47;;;;;;;40.67;30.53;;;12.70;82.40;;;;;;5131211;27;20058;-67
2021/05/15 11:43:28;;;;;;;41.97;29.63;;;12.70;82.40;;;;;;5131873;28;20039;-67
2021/05/15 11:45:54;;;;;;;43.10;30.00;;;12.80;82.30;;;;;;5133128;27;20051;-67
2021/05/15 11:48:22;;;;;;;39.40;29.57;;;12.90;82.00;;;;;;5135374;27;20056;-67
2021/05/15 11:51:12;;;;;;;41.43;30.63;;;13.00;81.90;;;;;;5135738;27;20383;-67
2021/05/15 11:53:49;;;;;;;37.40;30.10;;;13.20;82.00;;;;;;5136146;27;20406;-67
2021/05/15 11:56:20;;;;;;;38.03;29.70;;;13.50;81.20;;;;;;5134648;27;20043;-67
2021/05/15 11:58:59;;;;;;;40.35;30.02;;;13.60;80.60;;;;;;5135944;27;20051;-67
2021/05/15 12:01:35;;;;;;;39.00;30.37;;;13.80;80.20;;;;;;5135109;27;20051;-67
2021/05/15 12:04:19;;;;;;;35.53;28.47;;;13.90;79.30;;;;;;5134715;27;20055;-66
2021/05/15 12:06:46;;;;;;;32.77;26.43;;;14.00;79.10;;;;;;5135589;27;20057;-66
2021/05/15 12:09:17;;;;;;;35.17;28.67;;;14.10;78.90;;;;;;5135098;27;20125;-67
2021/05/15 12:11:43;;;;;;;38.78;26.38;;;14.20;78.90;;;;;;5134764;27;20130;-67
2021/05/15 12:14:11;;;;;;;35.43;28.03;;;14.40;78.50;;;;;;5135576;27;20051;-66
2021/05/15 12:16:38;;;;;;;33.80;27.60;;;14.50;77.60;;;;;;5134326;27;20043;-68
2021/05/15 12:19:05;;;;;;;29.57;24.43;;;14.60;77.30;;;;;;5134810;27;20081;-68
2021/05/15 12:21:31;;;;;;;33.73;28.03;;;14.60;76.70;;;;;;5135284;27;20444;-68
2021/05/15 12:24:08;;;;;;;33.53;28.23;;;14.60;76.30;;;;;;5134192;27;20411;-69
2021/05/15 12:26:34;;;;;;;34.77;27.90;;;14.50;76.30;;;;;;5134895;27;20119;-68
2021/05/15 12:29:02;;;;;;;36.80;27.77;;;14.40;76.40;;;;;;5135234;27;20051;-69
2021/05/15 12:31:34;;;;;;;32.13;26.27;;;14.50;76.70;;;;;;5134107;27;20051;-68
2021/05/15 12:34:00;;;;;;;;;;;14.70;76.90;;;;;;5135423;27;20489;-67
2021/05/15 12:36:34;;;;;;;30.90;24.80;;;14.90;75.00;;;;;;5135117;27;19919;-68